createdAt,value
2023-01-01T00:02:07.568Z,8.02
2023-01-01T00:04:37.180Z,7.43
2023-01-01T00:07:04.285Z,9.40
2023-01-01T00:09:49.374Z,8.73
2023-01-01T00:12:16.498Z,8.73
2023-01-01T00:14:44.429Z,8.35
2023-01-01T00:17:11.626Z,8.73
2023-01-01T00:19:38.657Z,8.52
2023-01-01T00:22:27.795Z,8.05
2023-01-01T00:24:52.474Z,8.20
2023-01-01T00:27:19.571Z,7.65
2023-01-01T00:29:46.300Z,8.27
2023-01-01T00:32:17.610Z,7.70
2023-01-01T00:34:47.571Z,7.95
2023-01-01T00:37:15.445Z,7.90
2023-01-01T00:39:42.200Z,7.95
2023-01-01T00:42:09.304Z,7.13
2023-01-01T00:44:36.034Z,6.55
2023-01-01T00:47:03.101Z,7.57
2023-01-01T00:49:29.819Z,6.80
2023-01-01T00:51:56.877Z,7.88
2023-01-01T00:54:23.655Z,7.72
2023-01-01T00:56:50.763Z,6.95
2023-01-01T00:59:17.530Z,7.75
2023-01-01T01:01:44.730Z,6.85
2023-01-01T01:04:11.567Z,7.30
2023-01-01T01:06:38.639Z,7.15
2023-01-01T01:09:07.133Z,7.10
2023-01-01T01:11:34.335Z,7.32
2023-01-01T01:14:01.076Z,7.25
2023-01-01T01:16:30.000Z,6.90
2023-01-01T01:18:59.524Z,7.53
2023-01-01T01:21:27.687Z,7.03
2023-01-01T01:23:55.034Z,7.00
2023-01-01T01:26:23.790Z,7.70
2023-01-01T01:28:50.930Z,7.70
2023-01-01T01:31:18.990Z,6.50
2023-01-01T01:33:46.201Z,6.97
2023-01-01T01:36:13.554Z,7.43
2023-01-01T01:38:40.424Z,7.28
2023-01-01T01:41:07.651Z,7.05
2023-01-01T01:43:34.363Z,7.85
2023-01-01T01:46:09.139Z,7.20
2023-01-01T01:48:54.075Z,8.13
2023-01-01T01:51:33.534Z,6.72
2023-01-01T01:54:01.712Z,6.95
2023-01-01T01:56:31.917Z,8.40
2023-01-01T01:58:58.717Z,6.00
2023-01-01T02:01:25.944Z,7.20
2023-01-01T02:03:57.505Z,6.43
2023-01-01T02:06:26.486Z,7.10
2023-01-01T02:08:53.457Z,7.35
2023-01-01T02:11:22.185Z,6.35
2023-01-01T02:13:49.767Z,7.00
2023-01-01T02:16:21.549Z,6.95
2023-01-01T02:19:01.907Z,6.40
2023-01-01T02:21:40.308Z,7.00
2023-01-01T02:24:16.114Z,6.30
2023-01-01T02:27:08.013Z,6.75
2023-01-01T02:29:38.552Z,6.97
2023-01-01T02:32:14.591Z,7.40
2023-01-01T02:34:53.581Z,6.88
2023-01-01T02:37:20.666Z,7.65
2023-01-01T02:39:53.219Z,6.43
2023-01-01T02:42:20.290Z,7.93
2023-01-01T02:44:48.866Z,6.85
2023-01-01T02:47:18.177Z,7.20
2023-01-01T02:50:07.019Z,8.13
2023-01-01T02:52:37.160Z,7.72
2023-01-01T02:55:33.283Z,9.00
2023-01-01T02:58:32.275Z,8.75
2023-01-01T03:01:08.258Z,9.10
2023-01-01T03:03:40.170Z,8.77
2023-01-01T03:06:24.036Z,9.20
2023-01-01T03:09:11.408Z,9.43
2023-01-01T03:11:39.664Z,9.80
2023-01-01T03:14:27.862Z,10.20
2023-01-01T03:17:01.188Z,9.35
2023-01-01T03:19:30.485Z,9.45
2023-01-01T03:21:57.195Z,8.52
2023-01-01T03:24:44.269Z,8.90
2023-01-01T03:27:36.216Z,8.77
2023-01-01T03:30:08.272Z,8.40
2023-01-01T03:33:01.092Z,8.32
2023-01-01T03:35:35.315Z,9.10
2023-01-01T03:38:02.838Z,8.95
2023-01-01T03:40:29.945Z,8.38
2023-01-01T03:42:59.956Z,8.88
2023-01-01T03:45:29.769Z,7.18
2023-01-01T03:47:56.653Z,7.60
2023-01-01T03:50:31.769Z,7.68
2023-01-01T03:53:17.786Z,8.40
2023-01-01T03:55:46.937Z,6.78
2023-01-01T03:58:27.419Z,7.05
2023-01-01T04:00:57.743Z,6.47
2023-01-01T04:03:25.893Z,6.63
2023-01-01T04:05:52.989Z,6.95
2023-01-01T04:08:19.695Z,6.70
2023-01-01T04:10:51.701Z,6.68
2023-01-01T04:13:18.473Z,7.53
2023-01-01T04:15:45.535Z,7.53
2023-01-01T04:18:12.294Z,8.07
2023-01-01T04:20:39.402Z,7.18
2023-01-01T04:23:06.182Z,7.07
2023-01-01T04:25:33.270Z,6.57
2023-01-01T04:28:02.342Z,6.70
2023-01-01T04:30:29.686Z,6.13
2023-01-01T04:32:56.603Z,5.57
2023-01-01T04:35:23.653Z,6.50
2023-01-01T04:37:50.365Z,6.10
2023-01-01T04:40:17.821Z,5.65
2023-01-01T04:42:44.559Z,5.75
2023-01-01T04:45:15.533Z,5.63
2023-01-01T04:47:42.628Z,5.22
2023-01-01T04:50:09.803Z,5.60
2023-01-01T04:52:36.764Z,6.32
2023-01-01T04:55:03.900Z,5.95
2023-01-01T04:57:30.934Z,4.88
2023-01-01T04:59:58.056Z,5.47
2023-01-01T05:02:24.940Z,5.95
2023-01-01T05:04:52.048Z,6.15
2023-01-01T05:07:18.767Z,6.18
2023-01-01T05:09:45.853Z,6.20
2023-01-01T05:12:12.632Z,5.55
2023-01-01T05:14:39.753Z,4.60
2023-01-01T05:17:06.496Z,5.50
2023-01-01T05:19:33.641Z,5.20
2023-01-01T05:22:05.358Z,5.18
2023-01-01T05:24:37.457Z,5.90
2023-01-01T05:27:04.231Z,5.03
2023-01-01T05:29:31.283Z,5.97
2023-01-01T05:31:58.097Z,5.75
2023-01-01T05:34:25.565Z,5.00
2023-01-01T05:36:52.415Z,5.00
2023-01-01T05:39:19.413Z,5.20
2023-01-01T05:41:46.151Z,5.55
2023-01-01T05:44:13.194Z,5.15
2023-01-01T05:46:40.019Z,5.63
2023-01-01T05:49:09.415Z,5.55
2023-01-01T05:54:02.267Z,5.55
2023-01-01T05:56:29.004Z,5.28
2023-01-01T05:58:56.329Z,5.60
2023-01-01T06:01:24.967Z,5.47
2023-01-01T06:03:52.879Z,5.35
2023-01-01T06:06:21.444Z,6.07
2023-01-01T06:08:55.876Z,7.07
2023-01-01T06:11:22.802Z,5.45
2023-01-01T06:13:52.567Z,5.22
2023-01-01T06:16:19.354Z,5.35
2023-01-01T06:18:46.435Z,6.82
2023-01-01T06:21:13.924Z,6.03
2023-01-01T06:23:41.062Z,5.70
2023-01-01T06:26:18.630Z,5.82
2023-01-01T06:28:45.897Z,6.10
2023-01-01T06:31:13.627Z,6.05
2023-01-01T06:33:40.817Z,6.10
2023-01-01T06:36:09.397Z,7.10
2023-01-01T06:38:38.367Z,6.40
2023-01-01T06:41:06.928Z,6.68
2023-01-01T06:43:34.673Z,6.35
2023-01-01T06:46:11.064Z,5.88
2023-01-01T06:48:38.154Z,6.45
2023-01-01T06:51:09.218Z,6.07
2023-01-01T06:53:36.299Z,6.05
2023-01-01T06:56:03.465Z,6.28
2023-01-01T06:58:30.663Z,5.88
2023-01-01T07:01:08.647Z,6.57
2023-01-01T07:03:36.657Z,6.20
2023-01-01T07:06:03.950Z,6.47
2023-01-01T07:08:30.720Z,6.22
2023-01-01T07:10:58.046Z,6.38
2023-01-01T07:13:25.377Z,5.95
2023-01-01T07:15:52.530Z,6.53
2023-01-01T07:18:22.915Z,6.57
2023-01-01T07:20:51.249Z,6.82
2023-01-01T07:23:18.026Z,6.50
2023-01-01T07:25:45.262Z,7.20
2023-01-01T07:28:13.169Z,7.63
2023-01-01T07:30:40.304Z,7.38
2023-01-01T07:33:09.573Z,7.45
2023-01-01T07:35:36.626Z,8.05
2023-01-01T07:38:03.368Z,8.07
2023-01-01T07:40:30.481Z,7.47
2023-01-01T07:42:57.241Z,6.82
2023-01-01T07:45:24.991Z,7.05
2023-01-01T07:47:53.959Z,7.65
2023-01-01T07:50:21.517Z,7.60
2023-01-01T07:52:48.301Z,7.57
2023-01-01T07:55:16.126Z,7.60
2023-01-01T07:57:43.509Z,6.80
2023-01-01T08:00:12.040Z,8.15
2023-01-01T08:02:39.015Z,6.50
2023-01-01T08:05:06.623Z,7.65
2023-01-01T08:07:33.412Z,6.95
2023-01-01T08:10:00.777Z,7.10
2023-01-01T08:12:27.568Z,7.45
2023-01-01T08:14:54.590Z,6.82
2023-01-01T08:17:21.350Z,6.35
2023-01-01T08:19:49.378Z,6.70
2023-01-01T08:22:16.252Z,7.20
2023-01-01T08:24:43.275Z,6.63
2023-01-01T08:27:14.342Z,6.22
2023-01-01T08:29:41.789Z,6.88
2023-01-01T08:32:08.581Z,6.72
2023-01-01T08:34:35.743Z,6.47
2023-01-01T08:37:02.515Z,6.90
2023-01-01T08:39:29.739Z,6.85
2023-01-01T08:41:56.512Z,6.65
2023-01-01T08:44:23.595Z,6.60
2023-01-01T08:46:52.662Z,6.45
2023-01-01T08:49:19.766Z,6.60
2023-01-01T08:51:46.488Z,7.38
2023-01-01T08:54:13.688Z,7.07
2023-01-01T08:56:40.406Z,6.22
2023-01-01T08:59:07.430Z,6.50
2023-01-01T09:01:34.337Z,6.28
2023-01-01T09:04:01.501Z,6.88
2023-01-01T09:06:28.196Z,7.05
2023-01-01T09:08:55.254Z,8.40
2023-01-01T09:11:23.355Z,7.15
2023-01-01T09:13:50.452Z,7.93
2023-01-01T09:16:17.444Z,7.57
2023-01-01T09:18:44.555Z,8.52
2023-01-01T09:21:11.312Z,8.15
2023-01-01T09:23:38.385Z,6.95
2023-01-01T09:26:06.020Z,6.97
2023-01-01T09:28:33.221Z,7.18
2023-01-01T09:31:01.142Z,7.45
2023-01-01T09:33:28.696Z,6.65
2023-01-01T09:35:55.644Z,7.28
2023-01-01T09:38:22.759Z,6.60
2023-01-01T09:41:14.456Z,6.55
2023-01-01T09:43:56.748Z,6.88
2023-01-01T09:46:31.185Z,6.70
2023-01-01T09:51:26.583Z,5.93
2023-01-01T09:54:05.230Z,6.82
2023-01-01T09:56:32.080Z,5.97
2023-01-01T09:58:59.390Z,5.75
2023-01-01T10:01:45.116Z,5.70
2023-01-01T10:04:15.176Z,6.85
2023-01-01T10:06:44.901Z,5.40
2023-01-01T10:09:34.522Z,5.40
2023-01-01T10:12:07.105Z,6.65
2023-01-01T10:14:39.169Z,5.93
2023-01-01T10:17:29.210Z,6.13
2023-01-01T10:20:03.259Z,5.90
2023-01-01T10:22:37.664Z,5.30
2023-01-01T10:25:19.971Z,5.68
2023-01-01T10:28:06.972Z,5.70
2023-01-01T10:30:34.024Z,4.95
2023-01-01T10:33:00.772Z,5.05
2023-01-01T10:35:36.080Z,5.72
2023-01-01T10:38:03.770Z,5.57
2023-01-01T10:40:30.909Z,5.60
2023-01-01T10:42:59.224Z,5.32
2023-01-01T10:45:32.548Z,5.85
2023-01-01T10:48:24.270Z,5.35
2023-01-01T10:50:51.662Z,5.25
2023-01-01T10:53:26.289Z,5.45
2023-01-01T10:55:58.819Z,4.93
2023-01-01T10:58:38.701Z,5.00
2023-01-01T11:01:08.068Z,5.20
2023-01-01T11:03:35.015Z,5.05
2023-01-01T11:06:02.771Z,4.75
2023-01-01T11:08:33.990Z,4.90
2023-01-01T11:11:02.133Z,5.53
2023-01-01T11:13:29.315Z,4.68
2023-01-01T11:15:56.479Z,5.05
2023-01-01T11:18:36.120Z,5.30
2023-01-01T11:21:04.535Z,4.55
2023-01-01T11:23:35.081Z,5.18
2023-01-01T11:26:14.141Z,5.28
2023-01-01T11:28:41.219Z,5.03
2023-01-01T11:31:13.567Z,4.75
2023-01-01T11:33:50.579Z,4.22
2023-01-01T11:36:25.364Z,4.63
2023-01-01T11:39:07.792Z,4.93
2023-01-01T11:41:45.352Z,4.90
2023-01-01T11:44:12.503Z,4.13
2023-01-01T11:46:39.605Z,4.28
2023-01-01T11:49:15.704Z,5.05
2023-01-01T11:51:42.857Z,4.18
2023-01-01T11:54:32.829Z,4.50
2023-01-01T11:57:22.170Z,3.78
2023-01-01T12:00:00.690Z,4.35
2023-01-01T12:02:36.811Z,4.15
2023-01-01T12:05:16.212Z,4.40
2023-01-01T12:07:44.400Z,4.00
2023-01-01T12:10:25.637Z,4.15
2023-01-01T12:13:01.843Z,3.80
2023-01-01T12:15:47.427Z,4.43
2023-01-01T12:18:35.342Z,4.47
2023-01-01T12:21:05.437Z,3.95
2023-01-01T12:23:32.557Z,4.10
2023-01-01T12:26:12.921Z,3.83
2023-01-01T12:28:59.356Z,3.80
2023-01-01T12:31:51.173Z,3.83
2023-01-01T12:34:36.613Z,2.95
2023-01-01T12:37:10.561Z,3.85
2023-01-01T12:40:25.255Z,3.67
2023-01-01T12:43:07.651Z,4.18
2023-01-01T12:45:43.693Z,4.07
2023-01-01T12:48:37.554Z,4.07
2023-01-01T12:51:13.798Z,4.32
2023-01-01T12:54:13.346Z,3.95
2023-01-01T12:56:44.711Z,4.47
2023-01-01T12:59:22.496Z,5.00
2023-01-01T13:01:49.871Z,5.30
2023-01-01T13:04:18.273Z,5.15
2023-01-01T13:06:48.365Z,4.75
2023-01-01T13:09:15.777Z,5.35
2023-01-01T13:11:45.238Z,5.07
2023-01-01T13:14:12.722Z,5.70
2023-01-01T13:16:45.641Z,5.53
2023-01-01T13:19:31.936Z,5.60
2023-01-01T13:21:59.829Z,5.80
2023-01-01T13:24:26.904Z,5.88
2023-01-01T13:26:54.115Z,6.55
2023-01-01T13:29:20.824Z,7.00
2023-01-01T13:31:47.895Z,7.72
2023-01-01T13:34:37.680Z,7.53
2023-01-01T13:37:11.053Z,8.10
2023-01-01T13:39:59.882Z,8.13
2023-01-01T13:42:52.634Z,8.52
2023-01-01T13:46:09.303Z,8.35
2023-01-01T13:48:32.780Z,10.80
2023-01-01T13:51:47.204Z,10.88
2023-01-01T13:54:55.736Z,9.60
2023-01-01T13:57:25.359Z,10.18
2023-01-01T13:59:55.289Z,10.85
2023-01-01T14:02:36.047Z,11.48
2023-01-01T14:05:31.162Z,10.77
2023-01-01T14:07:58.021Z,10.18
2023-01-01T14:10:28.275Z,10.60
2023-01-01T14:13:16.367Z,11.20
2023-01-01T14:15:46.457Z,10.18
2023-01-01T14:18:14.763Z,10.60
2023-01-01T14:20:52.204Z,9.90
2023-01-01T14:23:33.743Z,10.30
2023-01-01T14:26:01.095Z,10.90
2023-01-01T14:28:30.219Z,13.73
2023-01-01T14:30:58.287Z,14.10
2023-01-01T14:33:27.144Z,15.70
2023-01-01T14:35:55.203Z,16.13
2023-01-01T14:38:27.170Z,16.80
2023-01-01T14:41:06.416Z,16.27
2023-01-01T14:43:33.172Z,15.98
2023-01-01T14:46:02.564Z,16.45
2023-01-01T14:48:32.850Z,17.27
2023-01-01T14:50:59.851Z,15.65
2023-01-01T14:53:33.463Z,16.38
2023-01-01T14:56:00.507Z,15.43
2023-01-01T14:58:28.074Z,15.30
2023-01-01T15:01:13.418Z,16.08
2023-01-01T15:03:40.247Z,14.15
2023-01-01T15:06:16.293Z,13.60
2023-01-01T15:08:43.073Z,13.25
2023-01-01T15:11:10.281Z,14.35
2023-01-01T15:13:37.045Z,12.43
2023-01-01T15:16:18.091Z,11.63
2023-01-01T15:18:50.529Z,10.93
2023-01-01T15:21:38.766Z,10.30
2023-01-01T15:24:16.266Z,11.13
2023-01-01T15:26:45.347Z,10.60
2023-01-01T15:29:16.745Z,10.13
2023-01-01T15:31:47.543Z,10.00
2023-01-01T15:34:35.573Z,9.68
2023-01-01T15:37:31.883Z,9.50
2023-01-01T15:40:00.208Z,9.88
2023-01-01T15:42:38.172Z,9.70
2023-01-01T15:45:27.500Z,9.23
2023-01-01T15:47:58.260Z,9.23
2023-01-01T15:50:25.092Z,9.07
2023-01-01T15:52:57.088Z,9.10
2023-01-01T15:55:25.843Z,9.77
2023-01-01T15:57:52.878Z,8.73
2023-01-01T16:00:30.997Z,8.30
2023-01-01T16:03:00.356Z,8.18
2023-01-01T16:05:27.519Z,8.60
2023-01-01T16:08:04.835Z,8.30
2023-01-01T16:10:32.044Z,7.65
2023-01-01T16:12:59.271Z,7.70
2023-01-01T16:15:26.050Z,8.15
2023-01-01T16:17:53.173Z,8.77
2023-01-01T16:20:20.285Z,8.65
2023-01-01T16:22:47.444Z,6.93
2023-01-01T16:25:22.158Z,7.55
2023-01-01T16:27:49.260Z,8.13
2023-01-01T16:30:16.120Z,8.98
2023-01-01T16:32:43.148Z,9.38
2023-01-01T16:35:12.467Z,8.48
2023-01-01T16:37:39.635Z,8.88
2023-01-01T16:40:07.605Z,8.20
2023-01-01T16:42:34.679Z,8.32
2023-01-01T16:45:01.541Z,8.15
2023-01-01T16:47:29.896Z,9.02
2023-01-01T16:49:56.638Z,8.68
2023-01-01T16:52:23.683Z,9.25
2023-01-01T16:54:50.505Z,10.35
2023-01-01T16:57:17.572Z,10.60
2023-01-01T16:59:44.339Z,11.23
2023-01-01T17:02:11.590Z,12.45
2023-01-01T17:04:38.455Z,11.25
2023-01-01T17:07:05.548Z,12.40
2023-01-01T17:09:32.342Z,12.90
2023-01-01T17:11:59.379Z,13.43
2023-01-01T17:14:26.276Z,11.80
2023-01-01T17:16:56.365Z,13.07
2023-01-01T17:19:23.118Z,14.70
2023-01-01T17:21:50.298Z,15.13
2023-01-01T17:24:17.699Z,15.07
2023-01-01T17:26:45.063Z,15.75
2023-01-01T17:29:12.128Z,14.55
2023-01-01T17:31:39.278Z,15.38
2023-01-01T17:34:06.056Z,15.30
2023-01-01T17:36:33.169Z,14.75
2023-01-01T17:38:59.985Z,14.95
2023-01-01T17:41:27.106Z,14.85
2023-01-01T17:43:54.056Z,13.82
2023-01-01T17:46:29.761Z,16.38
2023-01-01T17:48:56.858Z,14.50
2023-01-01T17:51:24.012Z,15.43
2023-01-01T17:53:50.830Z,16.92
2023-01-01T17:56:18.563Z,16.30
2023-01-01T17:58:45.982Z,18.10
2023-01-01T18:01:13.242Z,16.90
2023-01-01T18:03:40.487Z,17.90
2023-01-01T18:06:07.691Z,17.33
2023-01-01T18:08:34.526Z,19.33
2023-01-01T18:11:01.660Z,18.75
2023-01-01T18:13:28.402Z,20.60
2023-01-01T18:16:00.248Z,20.05
2023-01-01T18:18:28.121Z,19.70
2023-01-01T18:21:02.189Z,19.50
2023-01-01T18:23:35.731Z,20.00
2023-01-01T18:26:03.116Z,20.20
2023-01-01T18:28:29.970Z,18.50
2023-01-01T18:31:16.989Z,19.60
2023-01-01T18:33:44.150Z,18.45
2023-01-01T18:36:16.081Z,19.45
2023-01-01T18:38:45.088Z,17.70
2023-01-01T18:41:30.580Z,17.73
2023-01-01T18:43:57.762Z,16.02
2023-01-01T18:46:24.917Z,16.38
2023-01-01T18:48:58.677Z,15.95
2023-01-01T18:51:26.400Z,16.60
2023-01-01T18:53:57.799Z,16.98
2023-01-01T18:56:24.975Z,15.50
2023-01-01T18:58:51.961Z,15.70
2023-01-01T19:01:21.745Z,15.75
2023-01-01T19:03:49.875Z,16.05
2023-01-01T19:06:30.521Z,14.55
2023-01-01T19:09:23.369Z,15.88
2023-01-01T19:11:51.743Z,15.75
2023-01-01T19:14:25.432Z,13.32
2023-01-01T19:16:55.745Z,12.68
2023-01-01T19:19:23.478Z,13.55
2023-01-01T19:21:52.619Z,13.50
2023-01-01T19:24:26.857Z,13.77
2023-01-01T19:27:00.181Z,13.32
2023-01-01T19:29:29.374Z,12.95
2023-01-01T19:31:57.177Z,15.27
2023-01-01T19:34:24.256Z,13.80
2023-01-01T19:36:51.506Z,13.77
2023-01-01T19:39:18.298Z,13.23
2023-01-01T19:41:45.469Z,12.52
2023-01-01T19:44:12.376Z,13.43
2023-01-01T19:46:39.599Z,13.65
2023-01-01T19:49:06.528Z,13.02
2023-01-01T19:51:33.582Z,13.40
2023-01-01T19:54:00.381Z,12.73
2023-01-01T19:56:27.559Z,11.73
2023-01-01T19:58:54.376Z,12.48
2023-01-01T20:01:21.647Z,11.95
2023-01-01T20:03:54.617Z,11.82
2023-01-01T20:06:23.407Z,11.45
2023-01-01T20:08:50.214Z,12.40
2023-01-01T20:11:17.430Z,12.02
2023-01-01T20:13:44.182Z,11.93
2023-01-01T20:16:11.292Z,11.68
2023-01-01T20:18:38.154Z,11.45
2023-01-01T20:21:26.641Z,11.77
2023-01-01T20:23:54.932Z,12.18
2023-01-01T20:26:23.760Z,13.77
2023-01-01T20:29:09.283Z,12.55
2023-01-01T20:34:03.530Z,12.80
2023-01-01T20:36:49.181Z,14.23
2023-01-01T20:39:15.941Z,13.48
2023-01-01T20:41:43.175Z,12.95
2023-01-01T20:44:10.059Z,13.98
2023-01-01T20:46:38.425Z,13.43
2023-01-01T20:49:05.318Z,13.55
2023-01-01T20:51:32.840Z,12.80
2023-01-01T20:53:59.726Z,12.40
2023-01-01T20:56:27.338Z,13.18
2023-01-01T20:59:00.074Z,13.00
2023-01-01T21:01:28.372Z,13.05
2023-01-01T21:03:55.284Z,12.07
2023-01-01T21:06:24.657Z,12.52
2023-01-01T21:08:52.453Z,12.48
2023-01-01T21:11:19.565Z,12.98
2023-01-01T21:13:46.610Z,13.25
2023-01-01T21:16:18.175Z,12.00
2023-01-01T21:18:45.595Z,11.90
2023-01-01T21:21:18.775Z,11.57
2023-01-01T21:23:45.709Z,11.77
2023-01-01T21:26:19.293Z,11.30
2023-01-01T21:28:47.515Z,11.30
2023-01-01T21:31:15.422Z,11.93
2023-01-01T21:33:43.041Z,10.63
2023-01-01T21:36:17.815Z,11.82
2023-01-01T21:38:45.038Z,11.25
2023-01-01T21:41:19.323Z,11.60
2023-01-01T21:43:56.906Z,10.90
2023-01-01T21:46:30.110Z,11.38
2023-01-01T21:48:57.795Z,10.77
2023-01-01T21:51:41.403Z,10.20
2023-01-01T21:54:12.055Z,10.65
2023-01-01T21:56:40.226Z,9.95
2023-01-01T21:59:25.899Z,10.57
2023-01-01T22:01:58.340Z,9.77
2023-01-01T22:04:26.364Z,9.80
2023-01-01T22:06:53.889Z,9.18
2023-01-01T22:09:56.008Z,9.98
2023-01-01T22:12:24.761Z,9.02
2023-01-01T22:14:52.752Z,9.50
2023-01-01T22:17:21.089Z,8.30
2023-01-01T22:19:48.526Z,8.45
2023-01-01T22:22:19.891Z,8.00
2023-01-01T22:25:25.472Z,8.57
2023-01-01T22:27:52.545Z,8.55
2023-01-01T22:30:19.308Z,7.70
2023-01-01T22:32:50.420Z,7.50
2023-01-01T22:35:29.995Z,7.50
2023-01-01T22:37:57.132Z,7.82
2023-01-01T22:40:29.908Z,7.82
2023-01-01T22:42:57.718Z,7.50
2023-01-01T22:45:24.577Z,6.78
2023-01-01T22:47:51.636Z,7.35
2023-01-01T22:50:26.187Z,6.43
2023-01-01T22:52:53.327Z,7.15
2023-01-01T22:55:20.128Z,7.32
2023-01-01T22:57:47.222Z,6.95
2023-01-01T23:00:14.560Z,6.47
2023-01-01T23:02:41.631Z,7.43
2023-01-01T23:05:08.581Z,6.65
2023-01-01T23:07:41.719Z,6.97
2023-01-01T23:10:10.488Z,7.20
2023-01-01T23:12:37.636Z,6.93
2023-01-01T23:15:23.368Z,6.50
2023-01-01T23:17:50.500Z,6.45
2023-01-01T23:20:17.224Z,6.93
2023-01-01T23:22:45.377Z,5.97
2023-01-01T23:25:13.530Z,6.25
2023-01-01T23:27:40.629Z,6.05
2023-01-01T23:30:07.859Z,6.80
2023-01-01T23:32:34.921Z,6.32
2023-01-01T23:35:01.683Z,5.93
2023-01-01T23:37:28.755Z,5.97
2023-01-01T23:39:55.512Z,5.82
2023-01-01T23:42:22.571Z,6.40
2023-01-01T23:44:49.637Z,5.75
2023-01-01T23:47:16.720Z,7.03
2023-01-01T23:49:43.461Z,5.55
2023-01-01T23:52:10.466Z,6.05
2023-01-01T23:54:39.074Z,6.10
2023-01-01T23:57:06.151Z,6.38
2023-01-01T23:59:32.897Z,6.43
